sensor_id;sensor_type;location;lat;lon;timestamp;pressure;altitude;pressure_sealevel;temperature;humidity
63395;BME280;49531;-34.520;150.798;2023-09-18T00:01:21;100964.56;;;27.01;23.62
63395;BME280;49531;-34.520;150.798;2023-09-18T00:03:48;100950.91;;;27.14;23.07
63395;BME280;49531;-34.520;150.798;2023-09-18T00:06:15;100938.94;;;27.24;23.33
63395;BME280;49531;-34.520;150.798;2023-09-18T00:08:42;100941.81;;;27.33;23.71
63395;BME280;49531;-34.520;150.798;2023-09-18T00:11:09;100935.94;;;27.39;23.08
63395;BME280;49531;-34.520;150.798;2023-09-18T00:13:38;100932.94;;;27.54;23.08
63395;BME280;49531;-34.520;150.798;2023-09-18T00:16:05;100923.00;;;27.59;23.08
63395;BME280;49531;-34.520;150.798;2023-09-18T00:18:32;100931.53;;;27.71;22.99
63395;BME280;49531;-34.520;150.798;2023-09-18T00:20:59;100917.72;;;27.76;22.71
63395;BME280;49531;-34.520;150.798;2023-09-18T00:23:26;100904.00;;;27.89;22.60
63395;BME280;49531;-34.520;150.798;2023-09-18T00:25:53;100913.44;;;27.97;23.07
63395;BME280;49531;-34.520;150.798;2023-09-18T00:28:20;100908.03;;;28.06;22.64
63395;BME280;49531;-34.520;150.798;2023-09-18T00:30:49;100905.38;;;28.14;22.55
63395;BME280;49531;-34.520;150.798;2023-09-18T00:33:16;100899.19;;;28.23;22.77
63395;BME280;49531;-34.520;150.798;2023-09-18T00:35:49;100896.94;;;28.25;22.19
63395;BME280;49531;-34.520;150.798;2023-09-18T00:38:16;100886.97;;;28.29;22.56
63395;BME280;49531;-34.520;150.798;2023-09-18T00:40:43;100881.88;;;28.36;22.46
63395;BME280;49531;-34.520;150.798;2023-09-18T00:43:10;100887.91;;;28.46;22.13
63395;BME280;49531;-34.520;150.798;2023-09-18T00:45:44;100878.25;;;28.49;21.93
63395;BME280;49531;-34.520;150.798;2023-09-18T00:48:12;100876.69;;;28.57;22.09
63395;BME280;49531;-34.520;150.798;2023-09-18T00:50:43;100869.03;;;28.67;22.04
63395;BME280;49531;-34.520;150.798;2023-09-18T00:53:11;100858.09;;;28.76;21.70
63395;BME280;49531;-34.520;150.798;2023-09-18T00:55:40;100857.66;;;28.82;21.86
63395;BME280;49531;-34.520;150.798;2023-09-18T00:58:08;100852.34;;;28.86;21.78
63395;BME280;49531;-34.520;150.798;2023-09-18T01:00:35;100857.03;;;28.85;22.28
63395;BME280;49531;-34.520;150.798;2023-09-18T01:03:03;100866.19;;;28.81;22.41
63395;BME280;49531;-34.520;150.798;2023-09-18T01:05:34;100846.47;;;28.79;22.60
63395;BME280;49531;-34.520;150.798;2023-09-18T01:08:02;100846.03;;;28.85;22.53
63395;BME280;49531;-34.520;150.798;2023-09-18T01:10:36;100825.78;;;28.81;22.85
63395;BME280;49531;-34.520;150.798;2023-09-18T01:13:15;100836.47;;;28.83;23.08
63395;BME280;49531;-34.520;150.798;2023-09-18T01:15:54;100836.66;;;28.86;23.20
63395;BME280;49531;-34.520;150.798;2023-09-18T01:18:23;100825.84;;;28.90;22.99
63395;BME280;49531;-34.520;150.798;2023-09-18T01:20:50;100820.97;;;28.87;23.21
63395;BME280;49531;-34.520;150.798;2023-09-18T01:23:17;100812.91;;;28.91;23.54
63395;BME280;49531;-34.520;150.798;2023-09-18T01:25:44;100803.84;;;28.90;23.29
63395;BME280;49531;-34.520;150.798;2023-09-18T01:28:11;100803.72;;;28.95;23.10
63395;BME280;49531;-34.520;150.798;2023-09-18T01:30:38;100805.84;;;28.98;23.10
63395;BME280;49531;-34.520;150.798;2023-09-18T01:33:06;100802.78;;;29.00;23.55
63395;BME280;49531;-34.520;150.798;2023-09-18T01:35:34;100797.47;;;29.03;23.26
63395;BME280;49531;-34.520;150.798;2023-09-18T01:38:03;100795.19;;;29.05;23.27
63395;BME280;49531;-34.520;150.798;2023-09-18T01:40:31;100782.94;;;29.11;23.09
63395;BME280;49531;-34.520;150.798;2023-09-18T01:42:58;100781.16;;;29.15;23.22
63395;BME280;49531;-34.520;150.798;2023-09-18T01:45:26;100778.91;;;29.17;23.00
63395;BME280;49531;-34.520;150.798;2023-09-18T01:47:53;100773.72;;;29.16;22.98
63395;BME280;49531;-34.520;150.798;2023-09-18T01:50:20;100769.19;;;29.20;22.99
63395;BME280;49531;-34.520;150.798;2023-09-18T01:52:48;100757.13;;;29.38;23.08
63395;BME280;49531;-34.520;150.798;2023-09-18T01:55:15;100750.25;;;29.58;22.64
63395;BME280;49531;-34.520;150.798;2023-09-18T01:57:42;100738.44;;;29.75;22.11
63395;BME280;49531;-34.520;150.798;2023-09-18T02:00:10;100756.44;;;29.90;21.97
63395;BME280;49531;-34.520;150.798;2023-09-18T02:02:38;100743.47;;;29.99;21.55
63395;BME280;49531;-34.520;150.798;2023-09-18T02:05:06;100733.28;;;30.08;21.65
63395;BME280;49531;-34.520;150.798;2023-09-18T02:07:33;100733.25;;;30.25;21.64
63395;BME280;49531;-34.520;150.798;2023-09-18T02:10:00;100719.47;;;30.34;21.85
63395;BME280;49531;-34.520;150.798;2023-09-18T02:12:27;100722.50;;;30.41;21.33
63395;BME280;49531;-34.520;150.798;2023-09-18T02:14:55;100708.38;;;30.51;20.87
63395;BME280;49531;-34.520;150.798;2023-09-18T02:17:24;100703.22;;;30.58;21.11
63395;BME280;49531;-34.520;150.798;2023-09-18T02:19:51;100706.44;;;30.69;20.71
63395;BME280;49531;-34.520;150.798;2023-09-18T02:22:19;100700.88;;;30.77;20.11
63395;BME280;49531;-34.520;150.798;2023-09-18T02:24:46;100698.53;;;30.88;19.85
63395;BME280;49531;-34.520;150.798;2023-09-18T02:27:13;100687.16;;;30.98;19.71
63395;BME280;49531;-34.520;150.798;2023-09-18T02:29:40;100682.91;;;31.01;19.97
63395;BME280;49531;-34.520;150.798;2023-09-18T02:32:08;100684.19;;;31.03;20.53
63395;BME280;49531;-34.520;150.798;2023-09-18T02:34:36;100676.78;;;30.95;20.63
63395;BME280;49531;-34.520;150.798;2023-09-18T02:37:03;100667.06;;;30.89;20.79
63395;BME280;49531;-34.520;150.798;2023-09-18T02:39:30;100667.41;;;30.88;20.77
63395;BME280;49531;-34.520;150.798;2023-09-18T02:41:57;100657.69;;;30.81;20.71
63395;BME280;49531;-34.520;150.798;2023-09-18T02:44:24;100654.81;;;30.78;21.03
63395;BME280;49531;-34.520;150.798;2023-09-18T02:46:51;100654.34;;;30.76;21.04
63395;BME280;49531;-34.520;150.798;2023-09-18T02:49:19;100648.81;;;30.76;21.03
63395;BME280;49531;-34.520;150.798;2023-09-18T02:51:47;100653.84;;;30.74;20.85
63395;BME280;49531;-34.520;150.798;2023-09-18T02:54:14;100651.09;;;30.74;21.02
63395;BME280;49531;-34.520;150.798;2023-09-18T02:56:41;100637.31;;;30.74;21.03
63395;BME280;49531;-34.520;150.798;2023-09-18T02:59:08;100634.41;;;30.70;21.31
63395;BME280;49531;-34.520;150.798;2023-09-18T03:01:35;100630.84;;;30.70;21.00
63395;BME280;49531;-34.520;150.798;2023-09-18T03:04:03;100628.88;;;30.70;21.28
63395;BME280;49531;-34.520;150.798;2023-09-18T03:06:30;100625.50;;;30.65;21.03
63395;BME280;49531;-34.520;150.798;2023-09-18T03:09:00;100624.69;;;30.64;21.34
63395;BME280;49531;-34.520;150.798;2023-09-18T03:11:30;100614.81;;;30.63;21.29
63395;BME280;49531;-34.520;150.798;2023-09-18T03:13:57;100608.97;;;30.65;21.38
63395;BME280;49531;-34.520;150.798;2023-09-18T03:16:24;100604.41;;;30.69;21.38
63395;BME280;49531;-34.520;150.798;2023-09-18T03:18:51;100595.97;;;30.65;21.40
63395;BME280;49531;-34.520;150.798;2023-09-18T03:21:18;100592.22;;;30.70;21.26
63395;BME280;49531;-34.520;150.798;2023-09-18T03:23:45;100587.84;;;30.69;21.21
63395;BME280;49531;-34.520;150.798;2023-09-18T03:26:12;100592.72;;;30.72;21.00
63395;BME280;49531;-34.520;150.798;2023-09-18T03:28:39;100586.06;;;30.73;20.93
63395;BME280;49531;-34.520;150.798;2023-09-18T03:31:07;100586.53;;;30.75;20.89
63395;BME280;49531;-34.520;150.798;2023-09-18T03:33:34;100574.69;;;30.74;21.11
63395;BME280;49531;-34.520;150.798;2023-09-18T03:36:01;100580.09;;;30.92;19.44
63395;BME280;49531;-34.520;150.798;2023-09-18T03:38:31;100572.97;;;31.11;19.54
63395;BME280;49531;-34.520;150.798;2023-09-18T03:41:05;100565.84;;;31.31;19.00
63395;BME280;49531;-34.520;150.798;2023-09-18T03:43:34;100572.03;;;31.49;19.61
63395;BME280;49531;-34.520;150.798;2023-09-18T03:46:05;100566.88;;;31.60;21.23
63395;BME280;49531;-34.520;150.798;2023-09-18T03:48:33;100567.00;;;31.63;22.03
63395;BME280;49531;-34.520;150.798;2023-09-18T03:51:06;100579.50;;;31.69;23.08
63395;BME280;49531;-34.520;150.798;2023-09-18T03:53:38;100555.56;;;31.73;23.64
63395;BME280;49531;-34.520;150.798;2023-09-18T03:56:05;100549.97;;;31.82;24.05
63395;BME280;49531;-34.520;150.798;2023-09-18T03:58:32;100545.97;;;31.92;24.05
63395;BME280;49531;-34.520;150.798;2023-09-18T04:01:00;100540.31;;;32.00;24.27
63395;BME280;49531;-34.520;150.798;2023-09-18T04:03:28;100545.41;;;32.10;23.97
63395;BME280;49531;-34.520;150.798;2023-09-18T04:05:55;100550.59;;;32.12;24.07
63395;BME280;49531;-34.520;150.798;2023-09-18T04:08:22;100546.91;;;32.20;24.29
63395;BME280;49531;-34.520;150.798;2023-09-18T04:10:49;100550.16;;;32.22;24.27
63395;BME280;49531;-34.520;150.798;2023-09-18T04:13:16;100539.78;;;32.19;24.82
63395;BME280;49531;-34.520;150.798;2023-09-18T04:15:43;100531.47;;;32.19;24.79
63395;BME280;49531;-34.520;150.798;2023-09-18T04:18:12;100533.44;;;32.19;25.20
63395;BME280;49531;-34.520;150.798;2023-09-18T04:20:42;100529.53;;;32.20;25.11
63395;BME280;49531;-34.520;150.798;2023-09-18T04:23:24;100524.91;;;32.11;24.97
63395;BME280;49531;-34.520;150.798;2023-09-18T04:25:52;100526.06;;;32.10;25.20
63395;BME280;49531;-34.520;150.798;2023-09-18T04:28:21;100519.59;;;32.06;24.90
63395;BME280;49531;-34.520;150.798;2023-09-18T04:30:48;100529.50;;;32.07;25.11
63395;BME280;49531;-34.520;150.798;2023-09-18T04:33:16;100526.97;;;32.02;25.09
63395;BME280;49531;-34.520;150.798;2023-09-18T04:35:44;100520.63;;;32.02;25.37
63395;BME280;49531;-34.520;150.798;2023-09-18T04:38:11;100518.59;;;31.99;25.16
63395;BME280;49531;-34.520;150.798;2023-09-18T04:40:40;100515.44;;;32.00;25.35
63395;BME280;49531;-34.520;150.798;2023-09-18T04:43:07;100519.72;;;31.98;25.57
63395;BME280;49531;-34.520;150.798;2023-09-18T04:45:35;100520.06;;;31.96;25.60
63395;BME280;49531;-34.520;150.798;2023-09-18T04:48:02;100522.38;;;31.94;25.87
63395;BME280;49531;-34.520;150.798;2023-09-18T04:50:32;100531.69;;;31.90;26.36
63395;BME280;49531;-34.520;150.798;2023-09-18T04:53:00;100519.81;;;31.89;26.17
63395;BME280;49531;-34.520;150.798;2023-09-18T04:55:27;100519.03;;;31.89;26.57
63395;BME280;49531;-34.520;150.798;2023-09-18T04:57:54;100513.03;;;31.87;26.68
63395;BME280;49531;-34.520;150.798;2023-09-18T05:00:21;100512.56;;;31.85;26.81
63395;BME280;49531;-34.520;150.798;2023-09-18T05:02:50;100519.69;;;31.86;27.04
63395;BME280;49531;-34.520;150.798;2023-09-18T05:05:17;100521.31;;;31.87;26.92
63395;BME280;49531;-34.520;150.798;2023-09-18T05:07:44;100514.97;;;31.86;26.71
63395;BME280;49531;-34.520;150.798;2023-09-18T05:10:11;100515.91;;;31.90;26.40
63395;BME280;49531;-34.520;150.798;2023-09-18T05:12:40;100515.09;;;31.90;26.35
63395;BME280;49531;-34.520;150.798;2023-09-18T05:15:08;100515.78;;;31.87;26.72
63395;BME280;49531;-34.520;150.798;2023-09-18T05:17:46;100510.03;;;31.79;26.87
63395;BME280;49531;-34.520;150.798;2023-09-18T05:20:15;100526.47;;;31.76;27.15
63395;BME280;49531;-34.520;150.798;2023-09-18T05:22:43;100524.72;;;31.71;27.34
63395;BME280;49531;-34.520;150.798;2023-09-18T05:25:11;100530.03;;;31.76;27.13
63395;BME280;49531;-34.520;150.798;2023-09-18T05:27:38;100518.88;;;31.73;27.53
63395;BME280;49531;-34.520;150.798;2023-09-18T05:30:19;100514.81;;;31.70;27.36
63395;BME280;49531;-34.520;150.798;2023-09-18T05:32:49;100523.91;;;31.71;27.56
63395;BME280;49531;-34.520;150.798;2023-09-18T05:35:16;100529.09;;;31.72;27.61
63395;BME280;49531;-34.520;150.798;2023-09-18T05:37:44;100524.38;;;31.73;27.42
63395;BME280;49531;-34.520;150.798;2023-09-18T05:40:12;100525.88;;;31.70;27.33
63395;BME280;49531;-34.520;150.798;2023-09-18T05:42:40;100523.78;;;31.67;27.27
63395;BME280;49531;-34.520;150.798;2023-09-18T05:45:12;100531.75;;;31.69;27.16
63395;BME280;49531;-34.520;150.798;2023-09-18T05:47:40;100531.75;;;31.69;27.01
63395;BME280;49531;-34.520;150.798;2023-09-18T05:50:08;100539.69;;;31.70;26.86
63395;BME280;49531;-34.520;150.798;2023-09-18T05:52:36;100526.06;;;31.65;26.79
63395;BME280;49531;-34.520;150.798;2023-09-18T05:55:03;100538.41;;;31.68;27.16
63395;BME280;49531;-34.520;150.798;2023-09-18T05:57:30;100533.69;;;31.68;27.20
63395;BME280;49531;-34.520;150.798;2023-09-18T05:59:57;100534.50;;;31.69;27.27
63395;BME280;49531;-34.520;150.798;2023-09-18T06:02:24;100537.59;;;31.67;27.04
63395;BME280;49531;-34.520;150.798;2023-09-18T06:04:56;100530.25;;;31.71;27.52
63395;BME280;49531;-34.520;150.798;2023-09-18T06:07:29;100546.00;;;31.71;27.41
63395;BME280;49531;-34.520;150.798;2023-09-18T06:09:58;100543.25;;;31.71;27.86
63395;BME280;49531;-34.520;150.798;2023-09-18T06:12:25;100545.53;;;31.69;27.87
63395;BME280;49531;-34.520;150.798;2023-09-18T06:14:52;100545.03;;;31.67;27.63
63395;BME280;49531;-34.520;150.798;2023-09-18T06:17:19;100553.03;;;31.68;27.72
63395;BME280;49531;-34.520;150.798;2023-09-18T06:19:46;100563.72;;;31.70;28.09
63395;BME280;49531;-34.520;150.798;2023-09-18T06:22:14;100564.06;;;31.68;28.23
63395;BME280;49531;-34.520;150.798;2023-09-18T06:24:41;100566.03;;;31.68;27.85
63395;BME280;49531;-34.520;150.798;2023-09-18T06:27:11;100563.91;;;31.65;28.13
63395;BME280;49531;-34.520;150.798;2023-09-18T06:29:38;100562.97;;;31.61;27.35
63395;BME280;49531;-34.520;150.798;2023-09-18T06:38:30;100565.88;;;31.64;27.95
63395;BME280;49531;-34.520;150.798;2023-09-18T06:41:00;100549.16;;;31.48;28.00
63395;BME280;49531;-34.520;150.798;2023-09-18T06:43:36;100553.19;;;31.51;28.05
63395;BME280;49531;-34.520;150.798;2023-09-18T06:46:09;100572.06;;;31.61;27.92
63395;BME280;49531;-34.520;150.798;2023-09-18T06:48:56;100564.22;;;31.51;28.43
63395;BME280;49531;-34.520;150.798;2023-09-18T06:51:26;100567.00;;;31.51;28.08
63395;BME280;49531;-34.520;150.798;2023-09-18T06:53:59;100574.59;;;31.54;28.24
63395;BME280;49531;-34.520;150.798;2023-09-18T06:56:29;100590.50;;;31.57;27.98
63395;BME280;49531;-34.520;150.798;2023-09-18T06:58:59;100581.72;;;31.55;27.96
63395;BME280;49531;-34.520;150.798;2023-09-18T07:01:26;100585.63;;;31.54;28.02
63395;BME280;49531;-34.520;150.798;2023-09-18T07:03:54;100595.06;;;31.53;28.53
63395;BME280;49531;-34.520;150.798;2023-09-18T07:06:22;100593.31;;;31.48;28.20
63395;BME280;49531;-34.520;150.798;2023-09-18T07:08:49;100596.88;;;31.49;28.35
63395;BME280;49531;-34.520;150.798;2023-09-18T07:11:17;100607.13;;;31.48;28.16
63395;BME280;49531;-34.520;150.798;2023-09-18T07:13:44;100601.13;;;31.46;28.61
63395;BME280;49531;-34.520;150.798;2023-09-18T07:16:11;100616.88;;;31.46;32.37
63395;BME280;49531;-34.520;150.798;2023-09-18T07:18:39;100602.75;;;31.27;33.11
63395;BME280;49531;-34.520;150.798;2023-09-18T07:21:07;100609.53;;;31.29;32.54
63395;BME280;49531;-34.520;150.798;2023-09-18T07:23:34;100609.88;;;31.28;31.76
63395;BME280;49531;-34.520;150.798;2023-09-18T07:26:04;100615.88;;;31.30;31.67
63395;BME280;49531;-34.520;150.798;2023-09-18T07:28:32;100611.03;;;31.27;31.26
63395;BME280;49531;-34.520;150.798;2023-09-18T07:31:09;100622.25;;;31.22;32.31
63395;BME280;49531;-34.520;150.798;2023-09-18T07:33:38;100614.19;;;31.16;31.65
63395;BME280;49531;-34.520;150.798;2023-09-18T07:36:05;100619.63;;;31.25;31.50
63395;BME280;49531;-34.520;150.798;2023-09-18T07:38:32;100628.00;;;31.37;30.84
63395;BME280;49531;-34.520;150.798;2023-09-18T07:41:03;100628.25;;;31.44;30.80
63395;BME280;49531;-34.520;150.798;2023-09-18T07:43:30;100626.13;;;31.50;30.89
63395;BME280;49531;-34.520;150.798;2023-09-18T07:45:57;100632.56;;;31.54;30.80
63395;BME280;49531;-34.520;150.798;2023-09-18T07:48:26;100636.47;;;31.53;30.56
63395;BME280;49531;-34.520;150.798;2023-09-18T07:50:53;100642.94;;;31.57;30.53
63395;BME280;49531;-34.520;150.798;2023-09-18T07:53:21;100636.28;;;31.58;30.53
63395;BME280;49531;-34.520;150.798;2023-09-18T07:55:54;100650.53;;;31.60;30.51
63395;BME280;49531;-34.520;150.798;2023-09-18T07:58:25;100645.47;;;31.62;30.42
63395;BME280;49531;-34.520;150.798;2023-09-18T08:00:56;100650.53;;;31.60;30.29
63395;BME280;49531;-34.520;150.798;2023-09-18T08:03:24;100651.00;;;31.62;30.38
63395;BME280;49531;-34.520;150.798;2023-09-18T08:05:55;100662.72;;;31.59;30.39
63395;BME280;49531;-34.520;150.798;2023-09-18T08:08:22;100661.13;;;31.58;30.28
63395;BME280;49531;-34.520;150.798;2023-09-18T08:10:54;100664.22;;;31.57;30.52
63395;BME280;49531;-34.520;150.798;2023-09-18T08:13:21;100667.19;;;31.52;30.52
63395;BME280;49531;-34.520;150.798;2023-09-18T08:15:50;100664.28;;;31.48;30.84
63395;BME280;49531;-34.520;150.798;2023-09-18T08:18:17;100668.53;;;31.45;30.67
63395;BME280;49531;-34.520;150.798;2023-09-18T08:20:44;100670.81;;;31.43;30.95
63395;BME280;49531;-34.520;150.798;2023-09-18T08:23:11;100675.06;;;31.41;30.59
63395;BME280;49531;-34.520;150.798;2023-09-18T08:25:39;100677.47;;;31.42;30.83
63395;BME280;49531;-34.520;150.798;2023-09-18T08:28:07;100675.88;;;31.41;30.80
63395;BME280;49531;-34.520;150.798;2023-09-18T08:30:34;100679.09;;;31.43;30.76
63395;BME280;49531;-34.520;150.798;2023-09-18T08:33:03;100681.25;;;31.38;30.75
63395;BME280;49531;-34.520;150.798;2023-09-18T08:35:31;100682.88;;;31.39;30.43
63395;BME280;49531;-34.520;150.798;2023-09-18T08:37:58;100688.88;;;31.41;30.59
63395;BME280;49531;-34.520;150.798;2023-09-18T08:40:25;100697.81;;;31.38;31.03
63395;BME280;49531;-34.520;150.798;2023-09-18T08:42:55;100689.06;;;31.36;30.61
63395;BME280;49531;-34.520;150.798;2023-09-18T08:45:37;100697.34;;;31.36;30.89
63395;BME280;49531;-34.520;150.798;2023-09-18T08:48:06;100698.47;;;31.35;31.01
63395;BME280;49531;-34.520;150.798;2023-09-18T08:50:34;100685.81;;;31.34;30.93
63395;BME280;49531;-34.520;150.798;2023-09-18T08:53:02;100695.56;;;31.31;31.48
63395;BME280;49531;-34.520;150.798;2023-09-18T08:55:30;100688.78;;;31.29;31.36
63395;BME280;49531;-34.520;150.798;2023-09-18T08:57:59;100701.63;;;31.25;31.44
63395;BME280;49531;-34.520;150.798;2023-09-18T09:00:26;100705.03;;;31.22;31.61
63395;BME280;49531;-34.520;150.798;2023-09-18T09:02:53;100710.56;;;31.22;31.34
63395;BME280;49531;-34.520;150.798;2023-09-18T09:05:22;100707.81;;;31.22;31.42
63395;BME280;49531;-34.520;150.798;2023-09-18T09:07:50;100712.06;;;31.19;31.56
63395;BME280;49531;-34.520;150.798;2023-09-18T09:10:18;100715.16;;;31.17;31.22
63395;BME280;49531;-34.520;150.798;2023-09-18T09:15:15;100715.50;;;31.16;31.26
63395;BME280;49531;-34.520;150.798;2023-09-18T09:17:43;100707.06;;;31.12;31.22
63395;BME280;49531;-34.520;150.798;2023-09-18T09:20:15;100719.22;;;31.11;31.51
63395;BME280;49531;-34.520;150.798;2023-09-18T09:22:45;100711.28;;;31.10;31.63
63395;BME280;49531;-34.520;150.798;2023-09-18T09:25:22;100715.97;;;31.09;31.86
63395;BME280;49531;-34.520;150.798;2023-09-18T09:27:50;100720.22;;;31.07;31.84
63395;BME280;49531;-34.520;150.798;2023-09-18T09:30:22;100723.31;;;31.05;31.97
63395;BME280;49531;-34.520;150.798;2023-09-18T09:32:51;100725.91;;;31.02;31.83
63395;BME280;49531;-34.520;150.798;2023-09-18T09:35:32;100716.34;;;30.99;32.35
63395;BME280;49531;-34.520;150.798;2023-09-18T09:38:06;100730.81;;;30.96;31.82
63395;BME280;49531;-34.520;150.798;2023-09-18T09:40:34;100723.19;;;30.93;32.05
63395;BME280;49531;-34.520;150.798;2023-09-18T09:43:04;100726.94;;;30.89;32.07
63395;BME280;49531;-34.520;150.798;2023-09-18T09:45:34;100727.59;;;30.85;32.10
63395;BME280;49531;-34.520;150.798;2023-09-18T09:48:05;100718.69;;;30.80;32.27
63395;BME280;49531;-34.520;150.798;2023-09-18T09:50:33;100736.84;;;30.81;32.24
63395;BME280;49531;-34.520;150.798;2023-09-18T09:53:00;100728.78;;;30.76;32.40
63395;BME280;49531;-34.520;150.798;2023-09-18T09:55:33;100731.06;;;30.74;32.24
63395;BME280;49531;-34.520;150.798;2023-09-18T09:58:02;100740.47;;;30.73;32.40
63395;BME280;49531;-34.520;150.798;2023-09-18T10:00:49;100737.06;;;30.76;32.35
63395;BME280;49531;-34.520;150.798;2023-09-18T10:03:19;100733.03;;;30.73;32.47
63395;BME280;49531;-34.520;150.798;2023-09-18T10:05:50;100737.72;;;30.73;32.48
63395;BME280;49531;-34.520;150.798;2023-09-18T10:08:36;100726.88;;;30.68;32.46
63395;BME280;49531;-34.520;150.798;2023-09-18T10:11:09;100740.66;;;30.68;32.17
63395;BME280;49531;-34.520;150.798;2023-09-18T10:13:52;100736.13;;;30.63;32.33
63395;BME280;49531;-34.520;150.798;2023-09-18T10:16:26;100728.97;;;30.53;32.85
63395;BME280;49531;-34.520;150.798;2023-09-18T10:25:11;100736.94;;;30.46;32.16
63395;BME280;49531;-34.520;150.798;2023-09-18T10:27:48;100747.97;;;30.46;32.39
63395;BME280;49531;-34.520;150.798;2023-09-18T10:30:22;100745.38;;;30.41;32.22
63395;BME280;49531;-34.520;150.798;2023-09-18T10:32:51;100749.09;;;30.45;32.29
63395;BME280;49531;-34.520;150.798;2023-09-18T10:35:31;100728.06;;;30.32;32.35
63395;BME280;49531;-34.520;150.798;2023-09-18T10:37:59;100732.78;;;30.32;32.24
63395;BME280;49531;-34.520;150.798;2023-09-18T10:40:30;100734.72;;;30.31;32.06
63395;BME280;49531;-34.520;150.798;2023-09-18T10:43:04;100752.53;;;30.34;31.87
63395;BME280;49531;-34.520;150.798;2023-09-18T10:45:40;100742.97;;;30.31;32.16
63395;BME280;49531;-34.520;150.798;2023-09-18T10:50:50;100754.19;;;30.26;32.08
63395;BME280;49531;-34.520;150.798;2023-09-18T10:53:24;100738.28;;;30.23;32.04
63395;BME280;49531;-34.520;150.798;2023-09-18T10:55:52;100743.63;;;30.19;31.97
63395;BME280;49531;-34.520;150.798;2023-09-18T10:58:27;100739.91;;;30.15;32.22
63395;BME280;49531;-34.520;150.798;2023-09-18T11:01:10;100746.06;;;30.12;32.07
63395;BME280;49531;-34.520;150.798;2023-09-18T11:04:06;100747.03;;;30.08;32.03
63395;BME280;49531;-34.520;150.798;2023-09-18T11:09:27;100747.03;;;29.99;31.64
63395;BME280;49531;-34.520;150.798;2023-09-18T11:12:05;100738.13;;;29.94;31.81
63395;BME280;49531;-34.520;150.798;2023-09-18T11:14:56;100732.78;;;29.89;31.86
63395;BME280;49531;-34.520;150.798;2023-09-18T11:17:54;100745.91;;;29.92;31.40
63395;BME280;49531;-34.520;150.798;2023-09-18T11:20:25;100734.56;;;29.84;30.93
63395;BME280;49531;-34.520;150.798;2023-09-18T11:26:35;100735.03;;;29.78;30.85
63395;BME280;49531;-34.520;150.798;2023-09-18T11:29:09;100742.97;;;29.79;30.88
63395;BME280;49531;-34.520;150.798;2023-09-18T11:31:58;100741.34;;;29.78;30.76
63395;BME280;49531;-34.520;150.798;2023-09-18T11:34:31;100730.66;;;29.68;30.80
63395;BME280;49531;-34.520;150.798;2023-09-18T11:37:36;100739.38;;;29.70;30.50
63395;BME280;49531;-34.520;150.798;2023-09-18T11:40:19;100731.13;;;29.62;30.52
63395;BME280;49531;-34.520;150.798;2023-09-18T11:43:26;100738.88;;;29.60;30.47
63395;BME280;49531;-34.520;150.798;2023-09-18T11:45:58;100720.59;;;29.46;29.94
63395;BME280;49531;-34.520;150.798;2023-09-18T11:48:46;100735.66;;;29.49;29.72
63395;BME280;49531;-34.520;150.798;2023-09-18T11:51:24;100726.09;;;29.46;30.00
63395;BME280;49531;-34.520;150.798;2023-09-18T11:54:08;100725.44;;;29.41;29.44
63395;BME280;49531;-34.520;150.798;2023-09-18T11:56:50;100724.91;;;29.39;29.71
63395;BME280;49531;-34.520;150.798;2023-09-18T11:59:32;100733.84;;;29.44;29.73
63395;BME280;49531;-34.520;150.798;2023-09-18T12:02:03;100735.31;;;29.42;29.74
63395;BME280;49531;-34.520;150.798;2023-09-18T12:04:37;100727.97;;;29.37;29.45
63395;BME280;49531;-34.520;150.798;2023-09-18T12:07:36;100728.94;;;29.33;29.44
63395;BME280;49531;-34.520;150.798;2023-09-18T12:10:12;100726.81;;;29.30;29.59
63395;BME280;49531;-34.520;150.798;2023-09-18T12:12:43;100721.81;;;29.32;29.41
63395;BME280;49531;-34.520;150.798;2023-09-18T12:15:16;100719.69;;;29.29;29.50
63395;BME280;49531;-34.520;150.798;2023-09-18T12:17:43;100716.78;;;29.25;29.32
63395;BME280;49531;-34.520;150.798;2023-09-18T12:20:18;100717.09;;;29.24;29.39
63395;BME280;49531;-34.520;150.798;2023-09-18T12:23:08;100711.09;;;29.21;29.28
63395;BME280;49531;-34.520;150.798;2023-09-18T12:25:56;100709.00;;;29.18;29.16
63395;BME280;49531;-34.520;150.798;2023-09-18T12:28:43;100714.34;;;29.15;29.19
63395;BME280;49531;-34.520;150.798;2023-09-18T12:31:36;100714.16;;;29.11;29.04
63395;BME280;49531;-34.520;150.798;2023-09-18T12:34:04;100715.28;;;29.10;29.15
63395;BME280;49531;-34.520;150.798;2023-09-18T12:36:34;100725.97;;;29.12;29.12
63395;BME280;49531;-34.520;150.798;2023-09-18T12:39:02;100710.25;;;29.04;29.01
63395;BME280;49531;-34.520;150.798;2023-09-18T12:41:38;100693.56;;;29.00;28.98
63395;BME280;49531;-34.520;150.798;2023-09-18T12:44:23;100709.44;;;29.03;28.84
63395;BME280;49531;-34.520;150.798;2023-09-18T12:46:53;100710.88;;;29.01;28.89
63395;BME280;49531;-34.520;150.798;2023-09-18T12:49:22;100700.34;;;28.94;28.63
63395;BME280;49531;-34.520;150.798;2023-09-18T12:52:04;100694.63;;;28.82;28.53
63395;BME280;49531;-34.520;150.798;2023-09-18T12:54:55;100699.50;;;28.85;28.44
63395;BME280;49531;-34.520;150.798;2023-09-18T12:57:44;100692.50;;;28.79;28.72
63395;BME280;49531;-34.520;150.798;2023-09-18T13:00:40;100683.91;;;28.72;28.45
63395;BME280;49531;-34.520;150.798;2023-09-18T13:12:54;100686.78;;;28.67;27.91